Max Planck — ELZY8 — position and weather

sailwx.info

Track history (hours):
 
Tides and Currents Weather Stations Pressure Air Temp Water Temp Dewpoint Dewpoint Depression Visibility Wind Speed Wind Dir Waves Ship Positions

Max Planck

Last reported at 2017-Jun-24 17:40 UTC. Time now 2017-Jun-25 07:10 UTC.
Position N 31°01' E 122°24'.

Length 99.9 m; beam 16.2 m; draft 6.8 m.

Type: Ship. MMSI: 636017362.

Date/timePositionNaut miles runAvg speedWind from/ knotsBaromVisibWave heightAir tempDewpointWater temp
2017-Jun-24 17:40N 31°01' E 122°24'214.5
2017-Jun-24 17:30N 31°01' E 122°22'713.7
2017-Jun-24 17:00N 31°03' E 122°14'612.1
2017-Jun-24 16:30N 31°03' E 122°07'612.0
2017-Jun-24 16:00N 31°05' E 122°00'510.5
2017-Jun-24 15:30N 31°07' E 121°55'5 9.6
2017-Jun-24 15:00N 31°11' E 121°51'9 9.1
2017-Jun-24 14:00N 31°18' E 121°44'4 7.4
2017-Jun-24 13:30N 31°20' E 121°41'5 9.8
2017-Jun-24 13:00N 31°23' E 121°36'611.6
2017-Jun-24 12:30N 31°26' E 121°30'510.2
2017-Jun-24 12:00N 31°29' E 121°26'611.9
2017-Jun-24 11:30N 31°33' E 121°20'714.0
2017-Jun-24 11:00N 31°38' E 121°15'714.4
2017-Jun-24 10:30N 31°42' E 121°08'714.2
2017-Jun-24 10:00N 31°46' E 121°01'2811.4
2017-Jun-24 07:33N 32°01' E 120°33'27 0.9
2017-Jun-23 00:44N 31°47' E 120°60'3 9.0
2017-Jun-23 00:22N 31°46' E 121°04'3 9.5
2017-Jun-23 00:00N 31°44' E 121°07'4 8.6
2017-Jun-22 23:30N 31°41' E 121°11'4 8.4
2017-Jun-22 23:00N 31°39' E 121°14'4 8.6
2017-Jun-22 22:30N 31°35' E 121°18'3 5.4
2017-Jun-22 22:01N 31°34' E 121°20'0 0.1
2017-Jun-22 21:30N 31°34' E 121°20'0 0.0
2017-Jun-22 20:55N 31°34' E 121°20'0 0.0
2017-Jun-22 20:30N 31°34' E 121°20'0 0.0
2017-Jun-22 19:59N 31°34' E 121°20'0 0.0
2017-Jun-22 19:29N 31°34' E 121°20'0 0.0
2017-Jun-22 18:59N 31°34' E 121°20'0 0.1
2017-Jun-22 18:29N 31°34' E 121°20'0 0.1
2017-Jun-22 17:59N 31°34' E 121°20'0 0.1
2017-Jun-22 17:29N 31°34' E 121°20'0 0.1
2017-Jun-22 16:59N 31°34' E 121°20'0 0.0
2017-Jun-22 16:29N 31°34' E 121°20'0 0.0
2017-Jun-22 15:59N 31°34' E 121°20'0 0.0
2017-Jun-22 15:29N 31°34' E 121°20'0 0.0
2017-Jun-22 14:59N 31°34' E 121°20'0 0.0
2017-Jun-22 13:59N 31°34' E 121°20'0 0.1
2017-Jun-22 13:29N 31°34' E 121°20'0 0.2
2017-Jun-22 12:59N 31°34' E 121°20'0 0.2
2017-Jun-22 12:29N 31°34' E 121°20'0 0.0
2017-Jun-22 11:59N 31°34' E 121°20'0 0.0
2017-Jun-22 11:29N 31°34' E 121°20'0 0.0
2017-Jun-22 10:59N 31°34' E 121°20'0 0.0
2017-Jun-22 10:31N 31°34' E 121°20'0 0.0
2017-Jun-22 10:00N 31°34' E 121°20'0 0.0
2017-Jun-22 09:30N 31°34' E 121°20'0 0.0
2017-Jun-22 09:00N 31°34' E 121°20'0 0.0
2017-Jun-22 08:30N 31°34' E 121°20'0 0.0
2017-Jun-22 08:00N 31°34' E 121°20'0 0.0
2017-Jun-22 07:29N 31°34' E 121°20'0 0.0
2017-Jun-22 07:00N 31°34' E 121°20'0 0.1
2017-Jun-22 06:30N 31°34' E 121°20'0 0.2
2017-Jun-22 06:00N 31°34' E 121°20'0 0.2
2017-Jun-22 05:30N 31°34' E 121°20'0 0.1
2017-Jun-22 05:00N 31°34' E 121°20'0 0.2
2017-Jun-22 04:30N 31°34' E 121°20'4 7.9
2017-Jun-22 04:00N 31°31' E 121°24'510.8
2017-Jun-22 03:30N 31°27' E 121°28'5 9.7
2017-Jun-22 03:00N 31°24' E 121°33'510.8
2017-Jun-22 02:30N 31°22' E 121°38'510.2
2017-Jun-22 02:00N 31°19' E 121°43'713.6
2017-Jun-22 01:30N 31°13' E 121°48'713.1
2017-Jun-22 01:00N 31°09' E 121°54'612.7
2017-Jun-22 00:31N 31°06' E 121°60'5 9.6
2017-Jun-22 00:00N 31°04' E 122°05'611.4
2017-Jun-21 23:30N 31°03' E 122°12'4 7.8
2017-Jun-21 23:01N 31°03' E 122°16'4 8.6
2017-Jun-21 22:29N 31°02' E 122°21'  
2017-Jun-16 01:53N 31°28' E 124°25'411.5
2017-Jun-16 01:30N 31°26' E 124°21'611.8
2017-Jun-16 01:00N 31°23' E 124°15'2912.3
2017-Jun-15 22:38N 31°11' E 123°44'412.9
2017-Jun-15 22:19N 31°10' E 123°40'412.9
2017-Jun-15 22:00N 31°09' E 123°35'3812.1
2017-Jun-15 18:50N 30°58' E 122°52'411.1
2017-Jun-15 18:30N 30°57' E 122°48'610.6
2017-Jun-15 17:59N 30°58' E 122°41'510.5
2017-Jun-15 17:29N 30°58' E 122°35'5 9.9
2017-Jun-15 17:00N 30°59' E 122°30'710.6
2017-Jun-15 16:21N 31°01' E 122°22'410.2
2017-Jun-15 15:57N 31°02' E 122°18'4 9.1
2017-Jun-15 15:30N 31°03' E 122°13'4 7.8
2017-Jun-15 15:00N 31°03' E 122°08'1111.4
2017-Jun-15 14:00N 31°07' E 121°56'713.6
2017-Jun-15 13:30N 31°11' E 121°50'714.4
2017-Jun-15 13:01N 31°17' E 121°44'612.2
2017-Jun-15 12:30N 31°21' E 121°39'611.5
2017-Jun-15 12:00N 31°24' E 121°33'510.6
2017-Jun-15 11:30N 31°27' E 121°28'612.2
2017-Jun-15 11:00N 31°31' E 121°23'612.0
2017-Jun-15 10:30N 31°35' E 121°18'611.6
2017-Jun-15 10:00N 31°39' E 121°13'611.4
2017-Jun-15 09:30N 31°43' E 121°08'610.8
2017-Jun-15 08:57N 31°46' E 121°02'2710.5
2017-Jun-15 06:24N 32°00' E 120°35'712.9
2017-Jun-15 05:50N 32°02' E 120°27'  
Track history (hours):
 
Tides and Currents Weather Stations Pressure Air Temp Water Temp Dewpoint Dewpoint Depression Visibility Wind Speed Wind Dir Waves Ship Positions

Max Planck

Last reported at 2017-Jun-24 17:40 UTC. Time now 2017-Jun-25 07:10 UTC.
Position N 31°01' E 122°24'.

Length 99.9 m; beam 16.2 m; draft 6.8 m.

Type: Ship. MMSI: 636017362.

Date/timePositionNaut miles runAvg speedWind from/ knotsBaromVisibWave heightAir tempDewpointWater temp
2017-Jun-24 17:40N 31°01' E 122°24'214.5
2017-Jun-24 17:30N 31°01' E 122°22'713.7
2017-Jun-24 17:00N 31°03' E 122°14'612.1
2017-Jun-24 16:30N 31°03' E 122°07'612.0
2017-Jun-24 16:00N 31°05' E 122°00'510.5
2017-Jun-24 15:30N 31°07' E 121°55'5 9.6
2017-Jun-24 15:00N 31°11' E 121°51'9 9.1
2017-Jun-24 14:00N 31°18' E 121°44'4 7.4
2017-Jun-24 13:30N 31°20' E 121°41'5 9.8
2017-Jun-24 13:00N 31°23' E 121°36'611.6
2017-Jun-24 12:30N 31°26' E 121°30'510.2
2017-Jun-24 12:00N 31°29' E 121°26'611.9
2017-Jun-24 11:30N 31°33' E 121°20'714.0
2017-Jun-24 11:00N 31°38' E 121°15'714.4
2017-Jun-24 10:30N 31°42' E 121°08'714.2
2017-Jun-24 10:00N 31°46' E 121°01'2811.4
2017-Jun-24 07:33N 32°01' E 120°33'27 0.9
2017-Jun-23 00:44N 31°47' E 120°60'3 9.0
2017-Jun-23 00:22N 31°46' E 121°04'3 9.5
2017-Jun-23 00:00N 31°44' E 121°07'4 8.6
2017-Jun-22 23:30N 31°41' E 121°11'4 8.4
2017-Jun-22 23:00N 31°39' E 121°14'4 8.6
2017-Jun-22 22:30N 31°35' E 121°18'3 5.4
2017-Jun-22 22:01N 31°34' E 121°20'0 0.1
2017-Jun-22 21:30N 31°34' E 121°20'0 0.0
2017-Jun-22 20:55N 31°34' E 121°20'0 0.0
2017-Jun-22 20:30N 31°34' E 121°20'0 0.0
2017-Jun-22 19:59N 31°34' E 121°20'0 0.0
2017-Jun-22 19:29N 31°34' E 121°20'0 0.0
2017-Jun-22 18:59N 31°34' E 121°20'0 0.1
2017-Jun-22 18:29N 31°34' E 121°20'0 0.1
2017-Jun-22 17:59N 31°34' E 121°20'0 0.1
2017-Jun-22 17:29N 31°34' E 121°20'0 0.1
2017-Jun-22 16:59N 31°34' E 121°20'0 0.0
2017-Jun-22 16:29N 31°34' E 121°20'0 0.0
2017-Jun-22 15:59N 31°34' E 121°20'0 0.0
2017-Jun-22 15:29N 31°34' E 121°20'0 0.0
2017-Jun-22 14:59N 31°34' E 121°20'0 0.0
2017-Jun-22 13:59N 31°34' E 121°20'0 0.1
2017-Jun-22 13:29N 31°34' E 121°20'0 0.2
2017-Jun-22 12:59N 31°34' E 121°20'0 0.2
2017-Jun-22 12:29N 31°34' E 121°20'0 0.0
2017-Jun-22 11:59N 31°34' E 121°20'0 0.0
2017-Jun-22 11:29N 31°34' E 121°20'0 0.0
2017-Jun-22 10:59N 31°34' E 121°20'0 0.0
2017-Jun-22 10:31N 31°34' E 121°20'0 0.0
2017-Jun-22 10:00N 31°34' E 121°20'0 0.0
2017-Jun-22 09:30N 31°34' E 121°20'0 0.0
2017-Jun-22 09:00N 31°34' E 121°20'0 0.0
2017-Jun-22 08:30N 31°34' E 121°20'0 0.0
2017-Jun-22 08:00N 31°34' E 121°20'0 0.0
2017-Jun-22 07:29N 31°34' E 121°20'0 0.0
2017-Jun-22 07:00N 31°34' E 121°20'0 0.1
2017-Jun-22 06:30N 31°34' E 121°20'0 0.2
2017-Jun-22 06:00N 31°34' E 121°20'0 0.2
2017-Jun-22 05:30N 31°34' E 121°20'0 0.1
2017-Jun-22 05:00N 31°34' E 121°20'0 0.2
2017-Jun-22 04:30N 31°34' E 121°20'4 7.9
2017-Jun-22 04:00N 31°31' E 121°24'510.8
2017-Jun-22 03:30N 31°27' E 121°28'5 9.7
2017-Jun-22 03:00N 31°24' E 121°33'510.8
2017-Jun-22 02:30N 31°22' E 121°38'510.2
2017-Jun-22 02:00N 31°19' E 121°43'713.6
2017-Jun-22 01:30N 31°13' E 121°48'713.1
2017-Jun-22 01:00N 31°09' E 121°54'612.7
2017-Jun-22 00:31N 31°06' E 121°60'5 9.6
2017-Jun-22 00:00N 31°04' E 122°05'611.4
2017-Jun-21 23:30N 31°03' E 122°12'4 7.8
2017-Jun-21 23:01N 31°03' E 122°16'4 8.6
2017-Jun-21 22:29N 31°02' E 122°21'  
2017-Jun-16 01:53N 31°28' E 124°25'411.5
2017-Jun-16 01:30N 31°26' E 124°21'611.8
2017-Jun-16 01:00N 31°23' E 124°15'2912.3
2017-Jun-15 22:38N 31°11' E 123°44'412.9
2017-Jun-15 22:19N 31°10' E 123°40'412.9
2017-Jun-15 22:00N 31°09' E 123°35'3812.1
2017-Jun-15 18:50N 30°58' E 122°52'411.1
2017-Jun-15 18:30N 30°57' E 122°48'610.6
2017-Jun-15 17:59N 30°58' E 122°41'510.5
2017-Jun-15 17:29N 30°58' E 122°35'5 9.9
2017-Jun-15 17:00N 30°59' E 122°30'710.6
2017-Jun-15 16:21N 31°01' E 122°22'410.2
2017-Jun-15 15:57N 31°02' E 122°18'4 9.1
2017-Jun-15 15:30N 31°03' E 122°13'4 7.8
2017-Jun-15 15:00N 31°03' E 122°08'1111.4
2017-Jun-15 14:00N 31°07' E 121°56'713.6
2017-Jun-15 13:30N 31°11' E 121°50'714.4
2017-Jun-15 13:01N 31°17' E 121°44'612.2
2017-Jun-15 12:30N 31°21' E 121°39'611.5
2017-Jun-15 12:00N 31°24' E 121°33'510.6
2017-Jun-15 11:30N 31°27' E 121°28'612.2
2017-Jun-15 11:00N 31°31' E 121°23'612.0
2017-Jun-15 10:30N 31°35' E 121°18'611.6
2017-Jun-15 10:00N 31°39' E 121°13'611.4
2017-Jun-15 09:30N 31°43' E 121°08'610.8
2017-Jun-15 08:57N 31°46' E 121°02'2710.5
2017-Jun-15 06:24N 32°00' E 120°35'712.9
2017-Jun-15 05:50N 32°02' E 120°27'  

Dump ship's entire track history